createdAt,value
2022-09-20T00:01:17.993Z,95487.59
2022-09-20T00:03:46.704Z,95482.13
2022-09-20T00:06:16.161Z,95483.88
2022-09-20T00:08:43.598Z,95472.75
2022-09-20T00:11:18.618Z,95479.56
2022-09-20T00:13:48.027Z,95486.44
2022-09-20T00:16:17.855Z,95477.69
2022-09-20T00:18:48.722Z,95473.59
2022-09-20T00:21:17.449Z,95474.91
2022-09-20T00:23:44.480Z,95478.97
2022-09-20T00:26:11.039Z,95476.84
2022-09-20T00:28:37.632Z,95472.97
2022-09-20T00:31:04.894Z,95467.34
2022-09-20T00:33:50.007Z,95465.22
2022-09-20T00:36:16.682Z,95468.34
2022-09-20T00:38:43.274Z,95467.31
2022-09-20T00:41:10.183Z,95465.84
2022-09-20T00:43:46.947Z,95459.34
2022-09-20T00:46:28.376Z,95456.81
2022-09-20T00:49:10.962Z,95455.44
2022-09-20T00:51:41.502Z,95458.94
2022-09-20T00:54:11.372Z,95456.63
2022-09-20T00:56:41.469Z,95453.00
2022-09-20T00:59:16.734Z,95444.91
2022-09-20T01:01:46.285Z,95454.31
2022-09-20T01:04:16.115Z,95456.16
2022-09-20T01:06:45.235Z,95456.41
2022-09-20T01:09:11.810Z,95453.25
2022-09-20T01:11:42.490Z,95452.69
2022-09-20T01:14:09.322Z,95462.28
2022-09-20T01:16:37.514Z,95456.09
2022-09-20T01:19:14.645Z,95464.38
2022-09-20T01:21:41.512Z,95473.34
2022-09-20T01:24:14.369Z,95469.38
2022-09-20T01:26:55.315Z,95467.00
2022-09-20T01:30:06.380Z,95462.56
2022-09-20T01:32:55.355Z,95465.06
2022-09-20T01:35:25.289Z,95461.34
2022-09-20T01:38:24.219Z,95463.84
2022-09-20T01:40:50.723Z,95465.97
2022-09-20T01:43:35.980Z,95459.22
2022-09-20T01:46:16.516Z,95465.06
2022-09-20T01:48:43.147Z,95457.28
2022-09-20T01:51:28.086Z,95451.56
2022-09-20T01:54:33.179Z,95454.94
2022-09-20T01:57:05.875Z,95463.47
2022-09-20T02:00:10.044Z,95449.38
2022-09-20T02:02:48.694Z,95453.31
2022-09-20T02:05:34.022Z,95451.59
2022-09-20T02:08:21.402Z,95446.78
2022-09-20T02:10:54.016Z,95439.22
2022-09-20T02:13:29.157Z,95429.44
2022-09-20T02:16:25.243Z,95433.41
2022-09-20T02:19:06.764Z,95436.78
2022-09-20T02:22:08.869Z,95433.72
2022-09-20T02:24:35.524Z,95441.91
2022-09-20T02:27:23.858Z,95440.38
2022-09-20T02:30:08.657Z,95438.97
2022-09-20T02:32:35.132Z,95434.44
2022-09-20T02:35:15.081Z,95444.88
2022-09-20T02:37:53.588Z,95449.22
2022-09-20T02:40:47.130Z,95444.59
2022-09-20T02:43:41.938Z,95451.78
2022-09-20T02:46:36.912Z,95449.22
2022-09-20T02:49:28.280Z,95453.16
2022-09-20T02:51:59.823Z,95450.34
2022-09-20T02:54:44.674Z,95453.88
2022-09-20T02:57:33.673Z,95454.34
2022-09-20T03:00:14.825Z,95449.53
2022-09-20T03:03:18.817Z,95455.94
2022-09-20T03:06:22.217Z,95452.03
2022-09-20T03:09:36.435Z,95450.94
2022-09-20T03:12:24.675Z,95448.66
2022-09-20T03:15:10.914Z,95450.97
2022-09-20T03:18:00.694Z,95449.34
2022-09-20T03:20:43.740Z,95449.72
2022-09-20T03:23:42.226Z,95450.06
2022-09-20T03:26:42.483Z,95453.91
2022-09-20T03:29:19.602Z,95452.75
2022-09-20T03:32:27.675Z,95453.81
2022-09-20T03:35:15.823Z,95449.84
2022-09-20T03:38:02.650Z,95457.88
2022-09-20T03:40:46.486Z,95455.06
2022-09-20T03:43:13.372Z,95447.38
2022-09-20T03:45:58.209Z,95455.91
2022-09-20T03:48:48.908Z,95453.06
2022-09-20T03:51:42.846Z,95454.84
2022-09-20T03:54:15.414Z,95454.38
2022-09-20T03:57:00.193Z,95450.75
2022-09-20T03:59:42.060Z,95453.66
2022-09-20T04:02:09.288Z,95452.63
2022-09-20T04:04:57.422Z,95450.75
2022-09-20T04:07:51.933Z,95452.06
2022-09-20T04:10:25.566Z,95447.03
2022-09-20T04:13:29.734Z,95442.97
2022-09-20T04:16:32.161Z,95446.00
2022-09-20T04:19:01.833Z,95453.69
2022-09-20T04:21:54.860Z,95456.25
2022-09-20T04:24:41.984Z,95451.84
2022-09-20T04:27:30.214Z,95453.78
2022-09-20T04:30:19.446Z,95452.06
2022-09-20T04:33:18.292Z,95450.56
2022-09-20T04:36:09.150Z,95448.19
2022-09-20T04:38:36.476Z,95450.88
2022-09-20T04:41:26.246Z,95459.84
2022-09-20T04:43:58.468Z,95460.34
2022-09-20T04:47:13.533Z,95452.53
2022-09-20T04:49:46.234Z,95460.09
2022-09-20T04:52:30.961Z,95465.25
2022-09-20T04:55:52.872Z,95461.59
2022-09-20T04:58:54.665Z,95464.97
2022-09-20T05:01:33.549Z,95465.91
2022-09-20T05:04:09.058Z,95461.47
2022-09-20T05:07:07.267Z,95471.41
2022-09-20T05:09:54.448Z,95475.69
2022-09-20T05:12:38.877Z,95477.31
2022-09-20T05:15:24.147Z,95475.69
2022-09-20T05:18:18.660Z,95472.19
2022-09-20T05:20:51.053Z,95480.38
2022-09-20T05:23:32.733Z,95483.41
2022-09-20T05:26:17.971Z,95483.53
2022-09-20T05:29:05.070Z,95485.63
2022-09-20T05:31:41.595Z,95486.34
2022-09-20T05:34:34.160Z,95486.22
2022-09-20T05:37:03.383Z,95488.31
2022-09-20T05:39:49.666Z,95488.56
2022-09-20T05:42:33.779Z,95494.84
2022-09-20T05:45:17.977Z,95491.91
2022-09-20T05:47:49.726Z,95493.19
2022-09-20T05:50:34.359Z,95487.81
2022-09-20T05:53:36.077Z,95502.28
2022-09-20T05:56:35.812Z,95493.28
2022-09-20T05:59:20.648Z,95502.72
2022-09-20T06:02:18.443Z,95505.06
2022-09-20T06:05:26.232Z,95498.75
2022-09-20T06:08:04.544Z,95511.22
2022-09-20T06:10:58.845Z,95507.03
2022-09-20T06:13:37.459Z,95511.53
2022-09-20T06:16:06.924Z,95504.84
2022-09-20T06:18:51.644Z,95508.91
2022-09-20T06:21:55.316Z,95510.88
2022-09-20T06:24:39.256Z,95515.38
2022-09-20T06:27:12.974Z,95509.00
2022-09-20T06:29:45.816Z,95512.34
2022-09-20T06:32:16.875Z,95506.00
2022-09-20T06:34:43.491Z,95506.00
2022-09-20T06:37:53.946Z,95507.97
2022-09-20T06:40:54.473Z,95505.47
2022-09-20T06:43:21.023Z,95509.22
2022-09-20T06:45:48.540Z,95514.81
2022-09-20T06:48:15.679Z,95509.41
2022-09-20T06:50:46.846Z,95515.63
2022-09-20T06:53:19.105Z,95514.44
2022-09-20T06:55:46.846Z,95515.84
2022-09-20T06:58:14.847Z,95520.91
2022-09-20T07:00:41.388Z,95512.44
2022-09-20T07:03:08.453Z,95524.19
2022-09-20T07:05:36.239Z,95525.28
2022-09-20T07:08:03.383Z,95529.88
2022-09-20T07:10:30.628Z,95528.06
2022-09-20T07:12:59.417Z,95529.03
2022-09-20T07:15:31.375Z,95525.13
2022-09-20T07:17:57.925Z,95527.16
2022-09-20T07:20:24.532Z,95535.25
2022-09-20T07:22:52.239Z,95540.56
2022-09-20T07:25:19.097Z,95545.94
2022-09-20T07:27:47.016Z,95549.06
2022-09-20T07:30:18.866Z,95550.59
2022-09-20T07:32:45.497Z,95554.94
2022-09-20T07:35:13.075Z,95551.50
2022-09-20T07:37:43.847Z,95549.31
2022-09-20T07:40:13.739Z,95549.41
2022-09-20T07:42:40.297Z,95546.94
2022-09-20T07:45:07.719Z,95549.03
2022-09-20T07:47:35.452Z,95553.25
2022-09-20T07:50:03.796Z,95550.75
2022-09-20T07:52:30.542Z,95549.72
2022-09-20T07:54:57.463Z,95559.31
2022-09-20T07:57:24.105Z,95551.09
2022-09-20T07:59:50.689Z,95551.16
2022-09-20T08:02:17.383Z,95552.72
2022-09-20T08:04:44.278Z,95560.97
2022-09-20T08:07:12.526Z,95555.56
2022-09-20T08:09:39.141Z,95558.97
2022-09-20T08:14:52.725Z,95549.13
2022-09-20T08:17:19.653Z,95556.94
2022-09-20T08:19:46.320Z,95557.38
2022-09-20T08:22:13.071Z,95558.69
2022-09-20T08:24:39.736Z,95565.47
2022-09-20T08:27:06.318Z,95559.44
2022-09-20T08:29:32.881Z,95564.91
2022-09-20T08:32:01.465Z,95567.03
2022-09-20T08:34:28.284Z,95566.22
2022-09-20T08:36:56.504Z,95568.81
2022-09-20T08:42:14.778Z,95573.38
2022-09-20T08:44:46.912Z,95575.19
2022-09-20T08:47:19.199Z,95579.47
2022-09-20T08:49:46.383Z,95572.56
2022-09-20T08:52:19.409Z,95574.50
2022-09-20T08:54:46.809Z,95577.78
2022-09-20T08:57:17.788Z,95580.47
2022-09-20T08:59:44.914Z,95576.38
2022-09-20T09:02:17.527Z,95583.19
2022-09-20T09:04:45.424Z,95576.94
2022-09-20T09:07:14.457Z,95579.22
2022-09-20T09:09:44.282Z,95582.94
2022-09-20T09:12:20.884Z,95583.81
2022-09-20T09:14:57.210Z,95572.59
2022-09-20T09:17:30.932Z,95581.72
2022-09-20T09:20:08.254Z,95591.09
2022-09-20T09:22:38.234Z,95587.88
2022-09-20T09:25:15.266Z,95595.50
2022-09-20T09:27:52.815Z,95596.78
2022-09-20T09:30:37.333Z,95584.31
2022-09-20T09:33:27.911Z,95575.09
2022-09-20T09:36:14.837Z,95578.34
2022-09-20T09:38:46.226Z,95584.03
2022-09-20T09:41:29.793Z,95581.25
2022-09-20T09:44:18.602Z,95579.28
2022-09-20T09:46:45.647Z,95580.31
2022-09-20T09:49:22.590Z,95573.22
2022-09-20T09:52:03.064Z,95566.94
2022-09-20T09:54:34.991Z,95570.34
2022-09-20T09:57:30.519Z,95570.41
2022-09-20T10:00:21.845Z,95567.47
2022-09-20T10:03:01.124Z,95568.06
2022-09-20T10:05:58.497Z,95569.16
2022-09-20T10:08:28.598Z,95575.69
2022-09-20T10:11:22.970Z,95571.22
2022-09-20T10:14:10.656Z,95570.63
2022-09-20T10:16:53.042Z,95570.91
2022-09-20T10:19:25.791Z,95569.69
2022-09-20T10:22:19.480Z,95571.88
2022-09-20T10:24:51.484Z,95576.09
2022-09-20T10:27:39.310Z,95566.03
2022-09-20T10:30:19.908Z,95569.53
2022-09-20T10:32:59.827Z,95561.63
2022-09-20T10:35:55.704Z,95562.88
2022-09-20T10:38:38.254Z,95569.25
2022-09-20T10:41:48.370Z,95561.22
2022-09-20T10:44:38.278Z,95572.88
2022-09-20T10:47:30.787Z,95571.31
2022-09-20T10:50:34.801Z,95566.31
2022-09-20T10:53:21.002Z,95563.56
2022-09-20T10:55:57.596Z,95567.63
2022-09-20T10:58:56.923Z,95561.69
2022-09-20T11:01:43.014Z,95561.13
2022-09-20T11:04:15.744Z,95566.84
2022-09-20T11:07:02.758Z,95568.63
2022-09-20T11:09:38.249Z,95563.31
2022-09-20T11:12:29.539Z,95567.97
2022-09-20T11:15:04.369Z,95559.84
2022-09-20T11:17:39.714Z,95566.66
2022-09-20T11:20:15.672Z,95571.69
2022-09-20T11:23:10.524Z,95574.22
2022-09-20T11:25:47.238Z,95580.06
2022-09-20T11:28:36.252Z,95574.19
2022-09-20T11:31:25.931Z,95576.19
2022-09-20T11:33:56.444Z,95579.31
2022-09-20T11:36:34.220Z,95576.00
2022-09-20T11:39:05.911Z,95569.28
2022-09-20T11:41:33.500Z,95562.59
2022-09-20T11:44:12.027Z,95562.53
2022-09-20T11:47:00.467Z,95574.13
2022-09-20T11:49:51.394Z,95569.28
2022-09-20T11:52:34.136Z,95565.53
2022-09-20T11:55:00.682Z,95565.84
2022-09-20T11:57:28.476Z,95556.28
2022-09-20T11:59:58.676Z,95559.34
2022-09-20T12:02:37.230Z,95552.34
2022-09-20T12:05:06.369Z,95549.28
2022-09-20T12:07:38.124Z,95545.50
2022-09-20T12:10:23.268Z,95549.75
2022-09-20T12:12:57.593Z,95547.16
2022-09-20T12:15:29.715Z,95546.84
2022-09-20T12:17:56.187Z,95545.22
2022-09-20T12:20:34.985Z,95548.16
2022-09-20T12:23:42.260Z,95546.31
2022-09-20T12:26:20.309Z,95540.50
2022-09-20T12:28:57.062Z,95537.81
2022-09-20T12:31:29.536Z,95529.06
2022-09-20T12:34:14.370Z,95527.56
2022-09-20T12:36:43.816Z,95531.13
2022-09-20T12:39:17.574Z,95527.28
2022-09-20T12:41:59.382Z,95515.75
2022-09-20T12:44:37.799Z,95517.19
2022-09-20T12:47:10.467Z,95513.28
2022-09-20T12:50:00.507Z,95519.59
2022-09-20T12:52:48.132Z,95511.56
2022-09-20T12:55:33.597Z,95512.16
2022-09-20T12:58:11.790Z,95511.34
2022-09-20T13:00:46.419Z,95513.38
2022-09-20T13:03:16.433Z,95511.97
2022-09-20T13:05:49.434Z,95507.69
2022-09-20T13:08:20.567Z,95513.06
2022-09-20T13:10:57.734Z,95504.19
2022-09-20T13:13:29.441Z,95504.50
2022-09-20T13:15:57.652Z,95512.50
2022-09-20T13:18:26.343Z,95512.25
2022-09-20T13:20:54.865Z,95511.50
2022-09-20T13:23:31.868Z,95508.19
2022-09-20T13:25:58.717Z,95520.72
2022-09-20T13:28:34.278Z,95518.25
2022-09-20T13:31:22.755Z,95516.56
2022-09-20T13:33:50.094Z,95511.44
2022-09-20T13:36:26.475Z,95511.13
2022-09-20T13:38:55.211Z,95508.16
2022-09-20T13:41:23.039Z,95515.59
2022-09-20T13:43:51.040Z,95514.13
2022-09-20T13:46:43.707Z,95520.13
2022-09-20T13:49:23.570Z,95516.16
2022-09-20T13:51:50.749Z,95506.78
2022-09-20T13:54:35.472Z,95509.47
2022-09-20T13:57:05.120Z,95506.97
2022-09-20T13:59:36.435Z,95503.00
2022-09-20T14:02:03.914Z,95498.50
2022-09-20T14:04:34.005Z,95492.31
2022-09-20T14:07:00.863Z,95487.16
2022-09-20T14:09:35.011Z,95491.78
2022-09-20T14:12:03.781Z,95488.56
2022-09-20T14:14:32.111Z,95490.06
2022-09-20T14:17:01.730Z,95493.44
2022-09-20T14:19:37.037Z,95488.53
2022-09-20T14:22:04.979Z,95490.84
2022-09-20T14:24:35.231Z,95498.31
2022-09-20T14:27:20.504Z,95500.69
2022-09-20T14:29:49.724Z,95498.72
2022-09-20T14:32:19.393Z,95501.41
2022-09-20T14:34:55.073Z,95499.50
2022-09-20T14:37:25.909Z,95503.78
2022-09-20T14:39:58.041Z,95497.34
2022-09-20T14:42:41.124Z,95486.94
2022-09-20T14:45:08.900Z,95492.84
2022-09-20T14:47:38.604Z,95500.88
2022-09-20T14:50:24.093Z,95495.13
2022-09-20T14:53:00.996Z,95504.25
2022-09-20T14:55:36.471Z,95498.13
2022-09-20T14:58:12.304Z,95498.97
2022-09-20T15:00:47.744Z,95501.34
2022-09-20T15:03:17.229Z,95496.66
2022-09-20T15:05:47.689Z,95499.59
2022-09-20T15:08:15.633Z,95499.59
2022-09-20T15:10:42.158Z,95501.53
2022-09-20T15:13:10.809Z,95495.84
2022-09-20T15:15:38.000Z,95498.94
2022-09-20T15:18:12.847Z,95504.28
2022-09-20T15:20:39.400Z,95502.47
2022-09-20T15:23:08.678Z,95504.00
2022-09-20T15:25:35.263Z,95502.94
2022-09-20T15:28:01.885Z,95513.41
2022-09-20T15:30:28.621Z,95509.50
2022-09-20T15:32:57.665Z,95506.56
2022-09-20T15:35:26.219Z,95514.22
2022-09-20T15:37:52.750Z,95521.34
2022-09-20T15:40:19.436Z,95525.06
2022-09-20T15:42:47.072Z,95526.88
2022-09-20T15:45:13.658Z,95524.66
2022-09-20T15:47:40.564Z,95528.56
2022-09-20T15:50:08.825Z,95525.50
2022-09-20T15:52:37.395Z,95532.63
2022-09-20T15:55:04.446Z,95536.00
2022-09-20T15:57:31.943Z,95525.41
2022-09-20T16:00:01.450Z,95531.44
2022-09-20T16:02:35.161Z,95534.53
2022-09-20T16:05:03.962Z,95537.69
2022-09-20T16:07:30.505Z,95532.00
2022-09-20T16:09:57.278Z,95531.78
2022-09-20T16:12:25.124Z,95535.78
2022-09-20T16:14:51.665Z,95530.03
2022-09-20T16:17:18.778Z,95535.50
2022-09-20T16:19:48.604Z,95537.13
2022-09-20T16:22:16.030Z,95541.66
2022-09-20T16:24:42.578Z,95545.59
2022-09-20T16:27:09.812Z,95541.53
2022-09-20T16:29:36.398Z,95542.09
2022-09-20T16:32:03.874Z,95548.88
2022-09-20T16:34:35.784Z,95545.38
2022-09-20T16:37:10.334Z,95551.25
2022-09-20T16:39:37.194Z,95553.31
2022-09-20T16:42:06.625Z,95549.75
2022-09-20T16:44:35.358Z,95543.19
2022-09-20T16:47:05.224Z,95547.69
2022-09-20T16:49:31.815Z,95553.22
2022-09-20T16:51:58.374Z,95555.44
2022-09-20T16:54:28.469Z,95552.31
2022-09-20T16:56:57.656Z,95560.63
2022-09-20T16:59:24.157Z,95555.88
2022-09-20T17:01:51.358Z,95559.03
2022-09-20T17:04:20.141Z,95567.59
2022-09-20T17:06:47.889Z,95562.97
2022-09-20T17:09:16.001Z,95565.16
2022-09-20T17:11:49.171Z,95564.22
2022-09-20T17:14:18.547Z,95566.41
2022-09-20T17:16:47.842Z,95565.44
2022-09-20T17:19:16.678Z,95579.31
2022-09-20T17:21:50.246Z,95573.78
2022-09-20T17:24:18.994Z,95581.38
2022-09-20T17:26:46.092Z,95588.44
2022-09-20T17:29:16.187Z,95592.66
2022-09-20T17:31:48.786Z,95590.63
2022-09-20T17:34:21.454Z,95592.25
2022-09-20T17:36:48.379Z,95599.03
2022-09-20T17:39:16.159Z,95605.84
2022-09-20T17:41:48.062Z,95610.16
2022-09-20T17:44:15.579Z,95610.97
2022-09-20T17:46:44.485Z,95618.53
2022-09-20T17:49:13.071Z,95620.97
2022-09-20T17:51:51.093Z,95622.47
2022-09-20T17:54:19.146Z,95625.44
2022-09-20T17:56:51.207Z,95636.59
2022-09-20T17:59:19.022Z,95628.56
2022-09-20T18:01:48.244Z,95639.28
2022-09-20T18:04:14.885Z,95636.50
2022-09-20T18:06:44.333Z,95642.88
2022-09-20T18:09:15.152Z,95636.19
2022-09-20T18:11:48.746Z,95636.06
2022-09-20T18:14:17.528Z,95645.25
2022-09-20T18:16:47.072Z,95643.72
2022-09-20T18:19:15.916Z,95645.00
2022-09-20T18:21:42.835Z,95655.44
2022-09-20T18:24:11.470Z,95651.66
2022-09-20T18:26:39.201Z,95653.78
2022-09-20T18:29:13.317Z,95660.53
2022-09-20T18:31:45.244Z,95664.44
2022-09-20T18:34:17.813Z,95658.75
2022-09-20T18:36:52.988Z,95670.94
2022-09-20T18:39:21.281Z,95667.19
2022-09-20T18:41:50.471Z,95679.97
2022-09-20T18:44:18.499Z,95680.13
2022-09-20T18:46:46.176Z,95683.66
2022-09-20T18:49:15.005Z,95680.69
2022-09-20T18:51:43.283Z,95687.78
2022-09-20T18:54:11.038Z,95681.06
2022-09-20T18:56:39.682Z,95683.25
2022-09-20T18:59:27.449Z,95688.34
2022-09-20T19:02:04.668Z,95690.28
2022-09-20T19:04:53.212Z,95694.56
2022-09-20T19:07:40.589Z,95696.88
2022-09-20T19:10:48.568Z,95696.94
2022-09-20T19:13:38.061Z,95704.66
2022-09-20T19:16:19.677Z,95706.81
2022-09-20T19:18:49.095Z,95711.75
2022-09-20T19:21:51.211Z,95713.69
2022-09-20T19:24:45.112Z,95720.22
2022-09-20T19:27:13.891Z,95723.09
2022-09-20T19:29:41.011Z,95720.22
2022-09-20T19:32:14.911Z,95718.78
2022-09-20T19:34:46.753Z,95723.09
2022-09-20T19:37:19.104Z,95720.22
2022-09-20T19:40:03.853Z,95723.72
2022-09-20T19:43:09.139Z,95735.75
2022-09-20T19:45:44.732Z,95734.97
2022-09-20T19:48:45.007Z,95736.63
2022-09-20T19:51:12.640Z,95738.28
2022-09-20T19:53:40.083Z,95739.25
2022-09-20T19:56:12.711Z,95753.53
2022-09-20T19:58:45.359Z,95749.66
2022-09-20T20:01:12.762Z,95759.81
2022-09-20T20:03:39.563Z,95747.66
2022-09-20T20:06:29.187Z,95751.63
2022-09-20T20:09:25.254Z,95756.09
2022-09-20T20:12:06.855Z,95754.94
2022-09-20T20:14:40.255Z,95759.59
2022-09-20T20:17:25.686Z,95759.34
2022-09-20T20:19:52.134Z,95760.78
2022-09-20T20:22:36.791Z,95761.69
2022-09-20T20:25:03.944Z,95764.38
2022-09-20T20:27:32.446Z,95766.47
2022-09-20T20:29:58.998Z,95768.13
2022-09-20T20:32:25.831Z,95772.81
2022-09-20T20:34:52.427Z,95769.66
2022-09-20T20:37:18.960Z,95771.84
2022-09-20T20:39:45.794Z,95773.84
2022-09-20T20:42:12.733Z,95774.75
2022-09-20T20:44:39.377Z,95769.81
2022-09-20T20:47:07.122Z,95771.56
2022-09-20T20:49:33.848Z,95767.25
2022-09-20T20:52:04.546Z,95777.44
2022-09-20T20:54:32.242Z,95768.78
2022-09-20T20:56:59.451Z,95772.31
2022-09-20T20:59:26.093Z,95767.72
2022-09-20T21:01:52.759Z,95774.50
2022-09-20T21:04:19.968Z,95769.34
2022-09-20T21:06:46.564Z,95772.50
2022-09-20T21:09:13.484Z,95774.97
2022-09-20T21:11:44.273Z,95772.66
2022-09-20T21:14:12.664Z,95772.09
2022-09-20T21:16:45.058Z,95772.91
2022-09-20T21:19:15.510Z,95774.41
2022-09-20T21:21:44.193Z,95774.22
2022-09-20T21:24:13.434Z,95769.84
2022-09-20T21:26:40.696Z,95775.69
2022-09-20T21:29:12.252Z,95780.16
2022-09-20T21:31:39.819Z,95775.34
2022-09-20T21:34:08.075Z,95778.16
2022-09-20T21:36:35.961Z,95783.81
2022-09-20T21:39:03.843Z,95784.25
2022-09-20T21:41:32.507Z,95786.13
2022-09-20T21:44:02.172Z,95780.50
2022-09-20T21:46:33.261Z,95779.34
2022-09-20T21:49:03.934Z,95779.69
2022-09-20T21:51:31.365Z,95785.09
2022-09-20T21:53:59.649Z,95779.56
2022-09-20T21:56:27.701Z,95786.25
2022-09-20T21:58:55.012Z,95792.34
2022-09-20T22:01:26.719Z,95796.66
2022-09-20T22:04:00.129Z,95792.44
2022-09-20T22:06:29.942Z,95784.97
2022-09-20T22:08:58.465Z,95793.44
2022-09-20T22:11:26.976Z,95790.16
2022-09-20T22:13:55.179Z,95790.28
2022-09-20T22:16:23.719Z,95791.81
2022-09-20T22:18:50.614Z,95792.88
2022-09-20T22:21:26.278Z,95792.88
2022-09-20T22:23:58.617Z,95785.38
2022-09-20T22:26:27.975Z,95788.06
2022-09-20T22:28:54.782Z,95788.28
2022-09-20T22:31:24.174Z,95787.69
2022-09-20T22:33:55.631Z,95791.72
2022-09-20T22:36:28.650Z,95784.47
2022-09-20T22:38:56.034Z,95787.88
2022-09-20T22:41:23.485Z,95788.41
2022-09-20T22:43:50.458Z,95787.34
2022-09-20T22:46:19.378Z,95782.59
2022-09-20T22:48:46.627Z,95782.47
2022-09-20T22:51:15.744Z,95787.00
2022-09-20T22:53:42.908Z,95783.44
2022-09-20T22:56:15.964Z,95795.56
2022-09-20T22:58:45.152Z,95782.72
2022-09-20T23:01:19.899Z,95778.25
2022-09-20T23:03:57.824Z,95788.38
2022-09-20T23:06:27.831Z,95781.09
2022-09-20T23:08:57.243Z,95787.34
2022-09-20T23:11:24.906Z,95783.13
2022-09-20T23:13:56.533Z,95779.66
2022-09-20T23:16:27.100Z,95786.88
2022-09-20T23:18:55.071Z,95785.22
2022-09-20T23:21:22.106Z,95781.50
2022-09-20T23:23:54.067Z,95787.66
2022-09-20T23:26:21.333Z,95785.69
2022-09-20T23:28:55.442Z,95794.84
2022-09-20T23:31:22.861Z,95790.09
2022-09-20T23:33:55.184Z,95788.88
2022-09-20T23:36:22.671Z,95787.66
2022-09-20T23:38:50.074Z,95788.78
2022-09-20T23:41:19.171Z,95788.34
2022-09-20T23:43:45.910Z,95787.03
2022-09-20T23:46:14.471Z,95789.91
2022-09-20T23:48:41.917Z,95790.28
2022-09-20T23:51:11.274Z,95794.03
2022-09-20T23:53:37.975Z,95790.94
2022-09-20T23:56:06.143Z,95789.97
2022-09-20T23:58:35.800Z,95788.44
